»·PEaware :: SKW4749 KONT-KSLC

SKW4749 :: KONT-KSLC

FLIGHT INFORMATION

Flight Status: Arrived
Operator:
SkyWest Airlines
More flights by this operator :: More flights under this callsign
Pilot: Aundrey S. (17120)
Aircraft: CANADAIR CL-600 CRJ-200
(CRJ2)
More flights by this aircraft type
Origin: KONT Ontario Intl
United States
Destination: KSLC Salt Lake City Intl
United States
More flights between these airports :: More routes between these airports
Route: SNSHN4 LAS Q70 BLIPP Q842 WINEN DCT MLF DELTA5
File this flight plan on PilotEdge
Remarks:
Altitude:
(Current/Filed)
35,000ft
Speed:
(Current/Filed)
420kts
Departed: 03-Sep-19 07:16 PM
Arrived: 03-Sep-19 08:40 PM
Distance/Time
Traveled:
484nm/1:24
Distance/Time
To Go:
Arrived

Flight Plot

Page will automatically refresh every two minutes.

Flight plan parsing failed; only flown route is shown


Map Options




Map Legend


Flown Route
Filed Route
Departure Airport
Arrival Airport
Navaid (VOR, NDB)
Fix

Horizontal Profiles

Position Reports

Time Latitude Longitude Heading Altitude Ground
Speed
03-Sep-19 18:39 34.059879 -117.597127 0 937ft 0kts
03-Sep-19 18:40 34.059879 -117.597127 0 937ft 0kts
03-Sep-19 18:40 34.059879 -117.597127 0 937ft 0kts
03-Sep-19 18:41 34.059879 -117.597127 0 937ft 0kts
03-Sep-19 18:43 34.059879 -117.597127 0 937ft 0kts
03-Sep-19 18:43 34.059879 -117.597127 0 937ft 0kts
03-Sep-19 18:44 34.059879 -117.597127 0 937ft 0kts
03-Sep-19 18:45 34.059879 -117.597127 0 937ft 0kts
03-Sep-19 18:46 34.059879 -117.597127 0 937ft 0kts
03-Sep-19 18:47 34.059879 -117.597127 0 937ft 0kts
03-Sep-19 18:48 34.059879 -117.597127 0 937ft 0kts
03-Sep-19 18:49 34.059879 -117.597127 0 937ft 0kts
03-Sep-19 18:50 34.059879 -117.597127 0 937ft 0kts
03-Sep-19 18:51 34.059879 -117.597127 0 937ft 0kts
03-Sep-19 18:52 34.059879 -117.597127 0 937ft 0kts
03-Sep-19 18:53 34.059879 -117.597127 0 937ft 0kts
03-Sep-19 18:54 34.059879 -117.597127 0 937ft 0kts
03-Sep-19 18:55 34.059879 -117.597127 0 937ft 0kts
03-Sep-19 18:56 34.059879 -117.597127 0 937ft 0kts
03-Sep-19 18:57 34.059879 -117.597127 0 937ft 0kts
03-Sep-19 18:58 34.059879 -117.597127 0 937ft 0kts
03-Sep-19 18:59 34.059879 -117.597127 0 937ft 0kts
03-Sep-19 19:00 34.059879 -117.597127 0 937ft 0kts
03-Sep-19 19:01 34.059879 -117.597127 0 937ft 0kts
03-Sep-19 19:02 34.059879 -117.597127 0 937ft 0kts
03-Sep-19 19:03 34.059883 -117.597127 0 937ft 0kts
03-Sep-19 19:04 34.059393 -117.597132 0 936ft 2kts
03-Sep-19 19:05 34.059297 -117.597132 0 935ft 0kts
03-Sep-19 19:06 34.059297 -117.597132 0 935ft 0kts
03-Sep-19 19:07 34.059297 -117.597132 0 935ft 0kts
03-Sep-19 19:08 34.059297 -117.597132 0 935ft 0kts
03-Sep-19 19:09 34.059346 -117.597111 31 936ft 2kts
03-Sep-19 19:10 34.058997 -117.592866 90 935ft 25kts
03-Sep-19 19:11 34.059001 -117.586428 90 938ft 15kts
03-Sep-19 19:12 34.058763 -117.582537 160 937ft 7kts
03-Sep-19 19:13 34.057923 -117.582507 180 935ft 0kts
03-Sep-19 19:14 34.057721 -117.582510 180 934ft 6kts
03-Sep-19 19:15 34.056880 -117.597483 269 928ft 136kts
03-Sep-19 19:16 34.058098 -117.659643 271 1710ft 262kts
03-Sep-19 19:17 34.073372 -117.764971 284 4840ft 295kts
03-Sep-19 19:18 34.111327 -117.829669 310 7949ft 218kts
03-Sep-19 19:19 34.159590 -117.882508 319 10815ft 256kts
03-Sep-19 19:20 34.218915 -117.944139 319 13497ft 308kts
03-Sep-19 19:21 34.299438 -117.957427 25 16823ft 328kts
03-Sep-19 19:22 34.368141 -117.888829 77 19972ft 338kts
03-Sep-19 19:23 34.380798 -117.773812 86 22970ft 353kts
03-Sep-19 19:24 34.389587 -117.653835 87 25875ft 365kts
03-Sep-19 19:25 34.429567 -117.539421 56 28433ft 388kts
03-Sep-19 19:26 34.495125 -117.430915 55 30758ft 405kts
03-Sep-19 19:27 34.563488 -117.318618 55 32875ft 422kts
03-Sep-19 19:28 34.634584 -117.201482 55 34863ft 437kts
03-Sep-19 19:29 34.710160 -117.076567 55 35009ft 466kts
03-Sep-19 19:30 34.787111 -116.948933 55 34948ft 467kts
03-Sep-19 19:31 34.864100 -116.820761 55 34928ft 467kts
03-Sep-19 19:32 34.944323 -116.695901 48 34959ft 467kts
03-Sep-19 19:33 35.032822 -116.579064 48 34957ft 468kts
03-Sep-19 19:34 35.121283 -116.462192 48 34953ft 468kts
03-Sep-19 19:35 35.209654 -116.345042 48 34953ft 468kts
03-Sep-19 19:36 35.297978 -116.227540 48 34952ft 467kts
03-Sep-19 19:37 35.385821 -116.110279 48 34947ft 467kts
03-Sep-19 19:38 35.473962 -115.992205 48 34961ft 471kts
03-Sep-19 19:39 35.562688 -115.872931 48 34992ft 475kts
03-Sep-19 19:40 35.652124 -115.751814 48 34992ft 479kts
03-Sep-19 19:41 35.741621 -115.628786 49 34993ft 482kts
03-Sep-19 19:42 35.831074 -115.505330 49 34993ft 484kts
03-Sep-19 19:43 35.921080 -115.380656 49 34985ft 483kts
03-Sep-19 19:44 36.010319 -115.256577 49 34972ft 481kts
03-Sep-19 19:45 36.102415 -115.135829 42 34954ft 481kts
03-Sep-19 19:46 36.203511 -115.026574 41 34907ft 481kts
03-Sep-19 19:47 36.304206 -114.917791 41 34899ft 480kts
03-Sep-19 19:48 36.405095 -114.808409 41 34899ft 480kts
03-Sep-19 19:49 36.505546 -114.699170 41 34900ft 479kts
03-Sep-19 19:50 36.605616 -114.589959 41 34900ft 479kts
03-Sep-19 19:51 36.706289 -114.480074 37 34898ft 479kts
03-Sep-19 19:52 36.818686 -114.390064 31 34931ft 478kts
03-Sep-19 19:53 36.931674 -114.301256 32 34963ft 478kts
03-Sep-19 19:54 37.044450 -114.212324 31 34992ft 478kts
03-Sep-19 19:55 37.157000 -114.123245 31 34988ft 479kts
03-Sep-19 19:56 37.269778 -114.033665 31 34989ft 479kts
03-Sep-19 19:57 37.382381 -113.943904 31 34989ft 479kts
03-Sep-19 19:58 37.494976 -113.853834 31 34991ft 480kts
03-Sep-19 19:59 37.607421 -113.763545 31 34992ft 480kts
03-Sep-19 20:00 37.720027 -113.672805 31 35145ft 478kts
03-Sep-19 20:01 37.831947 -113.582286 31 35214ft 478kts
03-Sep-19 20:02 37.942434 -113.488766 40 35217ft 480kts
03-Sep-19 20:03 38.042897 -113.375843 40 35216ft 482kts
03-Sep-19 20:04 38.143246 -113.261704 41 35196ft 483kts
03-Sep-19 20:05 38.243727 -113.146970 41 35173ft 484kts
03-Sep-19 20:06 38.344146 -113.031762 40 35172ft 484kts
03-Sep-19 20:07 38.464279 -112.957915 20 35185ft 479kts
03-Sep-19 20:08 38.587869 -112.891947 20 35195ft 479kts
03-Sep-19 20:09 38.711075 -112.825913 20 35206ft 480kts
03-Sep-19 20:10 38.834273 -112.759633 20 35212ft 481kts
03-Sep-19 20:11 38.958272 -112.692669 20 35231ft 481kts
03-Sep-19 20:12 39.082880 -112.625115 20 34507ft 487kts
03-Sep-19 20:13 39.208343 -112.556831 20 32292ft 489kts
03-Sep-19 20:14 39.335077 -112.495001 12 29902ft 484kts
03-Sep-19 20:15 39.463949 -112.452018 12 27390ft 468kts
03-Sep-19 20:16 39.588408 -112.410621 12 25029ft 457kts
03-Sep-19 20:17 39.709909 -112.370035 12 22741ft 447kts
03-Sep-19 20:18 39.829465 -112.329983 13 20436ft 438kts
03-Sep-19 20:19 39.946088 -112.290773 13 18152ft 431kts
03-Sep-19 20:20 40.059405 -112.252532 13 17023ft 403kts
03-Sep-19 20:21 40.164118 -112.217071 13 16575ft 382kts
03-Sep-19 20:22 40.266476 -112.182273 13 15251ft 377kts
03-Sep-19 20:23 40.367417 -112.147900 14 13874ft 374kts
03-Sep-19 20:24 40.467159 -112.113819 14 13012ft 353kts
03-Sep-19 20:25 40.557488 -112.084426 3 13008ft 318kts
03-Sep-19 20:26 40.645179 -112.080259 355 12215ft 325kts
03-Sep-19 20:27 40.734968 -112.090003 354 11005ft 305kts
03-Sep-19 20:28 40.813073 -112.099299 354 10998ft 258kts
03-Sep-19 20:29 40.880630 -112.107430 354 10756ft 241kts
03-Sep-19 20:30 40.949061 -112.115843 354 9629ft 246kts
03-Sep-19 20:31 41.014936 -112.106854 35 8020ft 240kts
03-Sep-19 20:32 41.046607 -112.040690 80 7525ft 191kts
03-Sep-19 20:33 41.011887 -112.015781 211 7533ft 180kts
03-Sep-19 20:34 40.968442 -112.034030 166 7540ft 171kts
03-Sep-19 20:35 40.920863 -112.012154 163 6781ft 192kts
03-Sep-19 20:36 40.868022 -112.007050 172 5396ft 175kts
03-Sep-19 20:37 40.827099 -112.001530 172 4634ft 144kts
03-Sep-19 20:38 40.788687 -111.997026 173 4221ft 102kts
03-Sep-19 20:39 40.781496 -111.995250 135 4221ft 1kts
03-Sep-19 20:40 40.781653 -111.994065 4 4221ft 15kts
03-Sep-19 20:41 40.788143 -111.994797 354 4221ft 26kts
03-Sep-19 20:42 40.791219 -111.990524 85 4221ft 24kts

Navigation Log

Ident Type
Flight plan parsing failed, navigation log unavailable